createdAt,value
2016-05-27T00:00:08.450Z,0
2016-05-27T00:01:08.295Z,0
2016-05-27T00:02:08.455Z,0
2016-05-27T00:03:08.411Z,0
2016-05-27T00:04:09.836Z,0
2016-05-27T00:05:08.400Z,0
2016-05-27T00:06:08.372Z,0
2016-05-27T00:07:08.359Z,0
2016-05-27T00:08:08.346Z,0
2016-05-27T00:09:08.333Z,0
2016-05-27T00:10:08.320Z,0
2016-05-27T00:11:08.338Z,0
2016-05-27T00:12:08.310Z,0
2016-05-27T00:13:08.296Z,0
2016-05-27T00:14:08.269Z,0
2016-05-27T00:15:08.271Z,0
2016-05-27T00:16:08.242Z,0
2016-05-27T00:17:08.088Z,0
2016-05-27T00:18:08.232Z,0
2016-05-27T00:19:08.079Z,0
2016-05-27T00:20:08.207Z,0
2016-05-27T00:21:08.193Z,0
2016-05-27T00:22:08.164Z,0
2016-05-27T00:23:08.151Z,0
2016-05-27T00:24:08.140Z,0
2016-05-27T00:25:07.985Z,0
2016-05-27T00:26:07.988Z,0
2016-05-27T00:27:08.115Z,0
2016-05-27T00:28:08.103Z,0
2016-05-27T00:29:08.089Z,0
2016-05-27T00:30:08.061Z,0
2016-05-27T00:31:08.095Z,0
2016-05-27T00:32:08.051Z,0
2016-05-27T00:33:08.038Z,0
2016-05-27T00:34:08.650Z,0
2016-05-27T00:35:07.699Z,0
2016-05-27T00:36:08.014Z,0
2016-05-27T00:37:07.986Z,0
2016-05-27T00:38:07.973Z,0
2016-05-27T00:39:07.975Z,0
2016-05-27T00:40:07.963Z,0
2016-05-27T00:41:07.935Z,0
2016-05-27T00:42:07.921Z,0
2016-05-27T00:43:07.908Z,0
2016-05-27T00:44:07.896Z,0
2016-05-27T00:45:07.883Z,0
2016-05-27T00:46:07.869Z,0
2016-05-27T00:47:07.857Z,0
2016-05-27T00:48:07.843Z,0
2016-05-27T00:49:08.238Z,0
2016-05-27T00:50:07.834Z,0
2016-05-27T00:51:07.805Z,0
2016-05-27T00:52:07.807Z,0
2016-05-27T00:53:07.623Z,0
2016-05-27T00:54:07.782Z,0
2016-05-27T00:55:07.768Z,0
2016-05-27T00:56:07.584Z,0
2016-05-27T00:57:07.759Z,0
2016-05-27T00:58:07.573Z,0
2016-05-27T00:59:07.702Z,0
2016-05-27T01:00:07.704Z,0
2016-05-27T01:01:07.691Z,0
2016-05-27T01:02:07.679Z,0
2016-05-27T01:03:07.900Z,0
2016-05-27T01:04:07.668Z,0
2016-05-27T01:05:07.639Z,0
2016-05-27T01:06:07.627Z,0
2016-05-27T01:07:07.614Z,0
2016-05-27T01:08:07.632Z,0
2016-05-27T01:09:07.572Z,0
2016-05-27T01:10:07.574Z,0
2016-05-27T01:11:07.561Z,0
2016-05-27T01:12:07.549Z,0
2016-05-27T01:13:07.396Z,0
2016-05-27T01:14:07.524Z,0
2016-05-27T01:15:07.526Z,0
2016-05-27T01:16:07.341Z,0
2016-05-27T01:17:07.485Z,0
2016-05-27T01:18:07.472Z,0
2016-05-27T01:19:07.677Z,0
2016-05-27T01:20:07.290Z,0
2016-05-27T01:21:07.292Z,0
2016-05-27T01:22:07.421Z,0
2016-05-27T01:23:07.406Z,0
2016-05-27T01:24:07.237Z,0
2016-05-27T01:25:07.381Z,0
2016-05-27T01:26:07.368Z,0
2016-05-27T01:27:07.355Z,0
2016-05-27T01:28:07.358Z,0
2016-05-27T01:29:07.345Z,0
2016-05-27T01:30:07.317Z,0
2016-05-27T01:31:07.319Z,0
2016-05-27T01:32:07.290Z,0
2016-05-27T01:33:07.278Z,0
2016-05-27T01:34:08.062Z,0
2016-05-27T01:35:07.251Z,0
2016-05-27T01:36:07.238Z,0
2016-05-27T01:37:07.226Z,0
2016-05-27T01:38:07.213Z,0
2016-05-27T01:39:07.075Z,0
2016-05-27T01:40:07.186Z,0
2016-05-27T01:41:07.189Z,0
2016-05-27T01:42:07.161Z,0
2016-05-27T01:43:07.164Z,0
2016-05-27T01:44:07.135Z,0
2016-05-27T01:45:06.982Z,0
2016-05-27T01:46:07.110Z,0
2016-05-27T01:47:07.096Z,0
2016-05-27T01:48:06.927Z,0
2016-05-27T01:49:07.104Z,0
2016-05-27T01:50:07.095Z,0
2016-05-27T01:51:07.101Z,0
2016-05-27T01:52:06.951Z,0
2016-05-27T01:53:07.114Z,0
2016-05-27T01:54:07.134Z,0
2016-05-27T01:55:07.113Z,0
2016-05-27T01:56:06.950Z,0
2016-05-27T01:57:07.100Z,0
2016-05-27T01:58:07.095Z,0
2016-05-27T01:59:07.087Z,0
2016-05-27T02:00:07.077Z,0
2016-05-27T02:01:06.912Z,0
2016-05-27T02:02:07.056Z,0
2016-05-27T02:03:06.922Z,0
2016-05-27T02:04:07.520Z,0
2016-05-27T02:05:07.023Z,0
2016-05-27T02:06:07.012Z,0
2016-05-27T02:07:07.016Z,0
2016-05-27T02:08:06.988Z,0
2016-05-27T02:09:06.975Z,0
2016-05-27T02:10:06.979Z,0
2016-05-27T02:11:06.809Z,0
2016-05-27T02:12:06.969Z,0
2016-05-27T02:13:06.941Z,0
2016-05-27T02:14:06.927Z,0
2016-05-27T02:15:06.899Z,0
2016-05-27T02:16:06.902Z,0
2016-05-27T02:17:06.889Z,0
2016-05-27T02:18:06.564Z,0
2016-05-27T02:19:06.864Z,0
2016-05-27T02:20:06.866Z,0
2016-05-27T02:21:06.681Z,0
2016-05-27T02:22:06.824Z,0
2016-05-27T02:23:06.655Z,0
2016-05-27T02:24:06.799Z,0
2016-05-27T02:25:06.801Z,0
2016-05-27T02:26:06.773Z,0
2016-05-27T02:27:06.759Z,0
2016-05-27T02:28:06.747Z,0
2016-05-27T02:29:06.734Z,0
2016-05-27T02:30:06.737Z,0
2016-05-27T02:31:06.708Z,0
2016-05-27T02:32:06.695Z,0
2016-05-27T02:33:06.681Z,0
2016-05-27T02:34:06.685Z,0
2016-05-27T02:35:06.500Z,0
2016-05-27T02:36:06.644Z,0
2016-05-27T02:37:06.458Z,0
2016-05-27T02:38:06.618Z,0
2016-05-27T02:39:06.589Z,0
2016-05-27T02:40:06.607Z,0
2016-05-27T02:41:06.578Z,0
2016-05-27T02:42:06.581Z,0
2016-05-27T02:43:06.553Z,0
2016-05-27T02:44:06.541Z,0
2016-05-27T02:45:06.543Z,0
2016-05-27T02:46:06.529Z,0
2016-05-27T02:47:06.516Z,0
2016-05-27T02:48:06.504Z,0
2016-05-27T02:49:06.350Z,0
2016-05-27T02:50:06.478Z,4
2016-05-27T02:51:06.449Z,4
2016-05-27T02:52:06.437Z,4
2016-05-27T02:53:06.440Z,0
2016-05-27T02:54:06.285Z,4
2016-05-27T02:55:06.241Z,4
2016-05-27T02:56:06.416Z,4
2016-05-27T02:57:06.371Z,4
2016-05-27T02:58:06.359Z,4
2016-05-27T02:59:06.221Z,4
2016-05-27T03:00:06.334Z,8
2016-05-27T03:01:06.337Z,8
2016-05-27T03:02:06.323Z,8
2016-05-27T03:03:06.310Z,8
2016-05-27T03:04:06.281Z,12
2016-05-27T03:05:06.112Z,8
2016-05-27T03:06:06.271Z,8
2016-05-27T03:07:06.259Z,12
2016-05-27T03:08:06.245Z,12
2016-05-27T03:09:06.061Z,12
2016-05-27T03:10:06.220Z,12
2016-05-27T03:11:06.206Z,12
2016-05-27T03:12:06.178Z,12
2016-05-27T03:13:06.024Z,16
2016-05-27T03:14:06.168Z,20
2016-05-27T03:15:06.139Z,20
2016-05-27T03:16:06.127Z,20
2016-05-27T03:17:06.144Z,20
2016-05-27T03:18:06.100Z,24
2016-05-27T03:19:06.103Z,24
2016-05-27T03:20:06.075Z,24
2016-05-27T03:21:05.921Z,28
2016-05-27T03:22:05.752Z,28
2016-05-27T03:23:05.927Z,32
2016-05-27T03:24:05.944Z,32
2016-05-27T03:25:06.010Z,32
2016-05-27T03:26:06.012Z,28
2016-05-27T03:27:05.999Z,28
2016-05-27T03:28:05.971Z,32
2016-05-27T03:29:05.818Z,32
2016-05-27T03:30:05.960Z,32
2016-05-27T03:31:05.963Z,32
2016-05-27T03:32:05.966Z,32
2016-05-27T03:33:05.922Z,36
2016-05-27T03:34:05.971Z,36
2016-05-27T03:35:05.896Z,40
2016-05-27T03:36:05.883Z,40
2016-05-27T03:37:05.870Z,44
2016-05-27T03:38:05.873Z,48
2016-05-27T03:39:05.844Z,48
2016-05-27T03:40:05.847Z,52
2016-05-27T03:41:05.819Z,56
2016-05-27T03:42:05.665Z,60
2016-05-27T03:43:05.792Z,64
2016-05-27T03:44:05.780Z,68
2016-05-27T03:45:05.767Z,72
2016-05-27T03:46:05.753Z,72
2016-05-27T03:47:05.741Z,76
2016-05-27T03:48:05.744Z,80
2016-05-27T03:49:05.761Z,84
2016-05-27T03:50:05.702Z,88
2016-05-27T03:51:05.689Z,88
2016-05-27T03:52:05.535Z,92
2016-05-27T03:53:05.663Z,104
2016-05-27T03:54:05.494Z,108
2016-05-27T03:55:05.481Z,112
2016-05-27T03:56:05.624Z,116
2016-05-27T03:57:05.612Z,116
2016-05-27T03:58:05.285Z,120
2016-05-27T03:59:05.585Z,124
2016-05-27T04:00:05.573Z,124
2016-05-27T04:01:05.403Z,128
2016-05-27T04:02:05.546Z,132
2016-05-27T04:03:05.534Z,140
2016-05-27T04:04:05.552Z,140
2016-05-27T04:05:05.367Z,144
2016-05-27T04:06:05.495Z,152
2016-05-27T04:07:05.326Z,160
2016-05-27T04:08:05.469Z,164
2016-05-27T04:09:05.456Z,176
2016-05-27T04:10:05.443Z,188
2016-05-27T04:11:05.431Z,204
2016-05-27T04:12:05.261Z,228
2016-05-27T04:13:05.405Z,248
2016-05-27T04:14:05.250Z,272
2016-05-27T04:15:05.378Z,292
2016-05-27T04:16:05.381Z,320
2016-05-27T04:17:05.353Z,340
2016-05-27T04:18:05.355Z,356
2016-05-27T04:19:06.186Z,368
2016-05-27T04:20:05.314Z,388
2016-05-27T04:21:05.301Z,408
2016-05-27T04:22:05.288Z,436
2016-05-27T04:23:05.275Z,464
2016-05-27T04:24:05.262Z,504
2016-05-27T04:25:05.109Z,548
2016-05-27T04:26:05.236Z,600
2016-05-27T04:27:05.223Z,648
2016-05-27T04:28:05.210Z,684
2016-05-27T04:29:05.198Z,704
2016-05-27T04:30:05.184Z,712
2016-05-27T04:31:04.871Z,696
2016-05-27T04:32:05.174Z,660
2016-05-27T04:33:05.145Z,616
2016-05-27T04:34:04.989Z,576
2016-05-27T04:35:05.023Z,552
2016-05-27T04:36:05.135Z,544
2016-05-27T04:37:05.091Z,556
2016-05-27T04:38:04.937Z,572
2016-05-27T04:39:05.112Z,596
2016-05-27T04:40:04.896Z,616
2016-05-27T04:41:04.898Z,624
2016-05-27T04:42:05.042Z,632
2016-05-27T04:43:05.014Z,628
2016-05-27T04:44:05.001Z,628
2016-05-27T04:45:04.831Z,632
2016-05-27T04:46:04.866Z,652
2016-05-27T04:47:04.978Z,688
2016-05-27T04:48:04.949Z,740
2016-05-27T04:49:05.077Z,804
2016-05-27T04:50:04.766Z,852
2016-05-27T04:51:04.925Z,884
2016-05-27T04:52:04.913Z,892
2016-05-27T04:53:04.728Z,884
2016-05-27T04:54:04.902Z,856
2016-05-27T04:55:04.858Z,840
2016-05-27T04:56:04.689Z,848
2016-05-27T04:57:04.848Z,884
2016-05-27T04:58:04.851Z,936
2016-05-27T04:59:04.838Z,1000
2016-05-27T05:00:04.825Z,1068
2016-05-27T05:01:04.796Z,1132
2016-05-27T05:02:04.768Z,1200
2016-05-27T05:03:04.770Z,1268
2016-05-27T05:04:05.492Z,1332
2016-05-27T05:05:04.729Z,1384
2016-05-27T05:06:04.731Z,1412
2016-05-27T05:07:04.703Z,1416
2016-05-27T05:08:04.706Z,1388
2016-05-27T05:09:04.693Z,1348
2016-05-27T05:10:04.695Z,1308
2016-05-27T05:11:04.651Z,1288
2016-05-27T05:12:04.654Z,1284
2016-05-27T05:13:04.642Z,1288
2016-05-27T05:14:04.629Z,1276
2016-05-27T05:15:04.615Z,1236
2016-05-27T05:16:04.587Z,1168
2016-05-27T05:17:04.433Z,1088
2016-05-27T05:18:04.108Z,1016
2016-05-27T05:19:05.205Z,960
2016-05-27T05:20:04.535Z,928
2016-05-27T05:21:04.538Z,904
2016-05-27T05:22:04.368Z,888
2016-05-27T05:23:04.511Z,872
2016-05-27T05:24:04.514Z,856
2016-05-27T05:25:04.486Z,844
2016-05-27T05:26:04.473Z,828
2016-05-27T05:27:04.460Z,808
2016-05-27T05:28:04.291Z,796
2016-05-27T05:29:04.435Z,780
2016-05-27T05:30:04.266Z,768
2016-05-27T05:31:04.407Z,752
2016-05-27T05:32:04.240Z,732
2016-05-27T05:33:04.383Z,712
2016-05-27T05:34:04.088Z,704
2016-05-27T05:35:04.357Z,700
2016-05-27T05:36:04.360Z,700
2016-05-27T05:37:04.331Z,708
2016-05-27T05:38:04.318Z,720
2016-05-27T05:39:04.149Z,728
2016-05-27T05:40:04.307Z,736
2016-05-27T05:41:04.279Z,744
2016-05-27T05:42:04.266Z,760
2016-05-27T05:43:04.301Z,788
2016-05-27T05:44:04.240Z,816
2016-05-27T05:45:04.242Z,852
2016-05-27T05:46:04.230Z,892
2016-05-27T05:47:04.201Z,928
2016-05-27T05:48:04.188Z,964
2016-05-27T05:49:04.191Z,992
2016-05-27T05:50:04.006Z,1012
2016-05-27T05:51:04.150Z,1024
2016-05-27T05:52:04.136Z,1032
2016-05-27T05:53:04.124Z,1024
2016-05-27T05:54:04.126Z,1016
2016-05-27T05:55:03.942Z,1008
2016-05-27T05:56:04.100Z,996
2016-05-27T05:57:04.072Z,984
2016-05-27T05:58:04.074Z,968
2016-05-27T05:59:04.062Z,948
2016-05-27T06:00:03.877Z,920
2016-05-27T06:01:04.021Z,892
2016-05-27T06:02:04.008Z,864
2016-05-27T06:03:04.010Z,844
2016-05-27T06:04:05.044Z,820
2016-05-27T06:05:03.984Z,804
2016-05-27T06:06:03.956Z,796
2016-05-27T06:07:05.662Z,800
2016-05-27T06:08:03.946Z,808
2016-05-27T06:09:03.932Z,820
2016-05-27T06:10:03.904Z,836
2016-05-27T06:11:03.907Z,848
2016-05-27T06:12:03.893Z,852
2016-05-27T06:13:03.724Z,860
2016-05-27T06:14:03.868Z,868
2016-05-27T06:15:03.683Z,876
2016-05-27T06:16:03.670Z,896
2016-05-27T06:17:05.703Z,924
2016-05-27T06:18:03.817Z,956
2016-05-27T06:19:03.647Z,992
2016-05-27T06:20:03.633Z,1036
2016-05-27T06:21:03.762Z,1080
2016-05-27T06:22:05.749Z,1124
2016-05-27T06:23:03.752Z,1164
2016-05-27T06:24:03.738Z,1200
2016-05-27T06:25:03.725Z,1236
2016-05-27T06:26:03.556Z,1260
2016-05-27T06:27:03.715Z,1280
2016-05-27T06:28:03.515Z,1296
2016-05-27T06:29:03.674Z,1316
2016-05-27T06:30:03.677Z,1340
2016-05-27T06:31:03.648Z,1368
2016-05-27T06:32:03.479Z,1388
2016-05-27T06:33:03.607Z,1412
2016-05-27T06:34:03.640Z,1432
2016-05-27T06:35:03.284Z,1452
2016-05-27T06:36:03.568Z,1476
2016-05-27T06:37:03.570Z,1512
2016-05-27T06:38:03.573Z,1544
2016-05-27T06:39:03.545Z,1580
2016-05-27T06:40:03.531Z,1624
2016-05-27T06:41:03.363Z,1656
2016-05-27T06:42:03.506Z,1680
2016-05-27T06:43:03.508Z,1704
2016-05-27T06:44:03.355Z,1724
2016-05-27T06:45:03.467Z,1728
2016-05-27T06:46:03.297Z,1736
2016-05-27T06:47:03.441Z,1732
2016-05-27T06:48:03.272Z,1728
2016-05-27T06:49:03.118Z,1732
2016-05-27T06:50:03.417Z,1744
2016-05-27T06:51:03.233Z,1752
2016-05-27T06:52:03.408Z,1764
2016-05-27T06:53:03.222Z,1780
2016-05-27T06:54:03.350Z,1796
2016-05-27T06:55:03.353Z,1824
2016-05-27T06:56:03.324Z,1852
2016-05-27T06:57:03.328Z,1884
2016-05-27T06:58:03.314Z,1920
2016-05-27T06:59:03.286Z,1964
2016-05-27T07:00:03.272Z,2008
2016-05-27T07:01:03.259Z,2048
2016-05-27T07:02:03.247Z,2104
2016-05-27T07:03:03.110Z,2172
2016-05-27T07:04:03.690Z,2236
2016-05-27T07:05:03.223Z,2316
2016-05-27T07:06:03.196Z,2404
2016-05-27T07:07:03.182Z,2504
2016-05-27T07:08:03.168Z,2588
2016-05-27T07:09:03.157Z,2656
2016-05-27T07:10:03.143Z,2712
2016-05-27T07:11:03.131Z,2764
2016-05-27T07:12:03.133Z,2828
2016-05-27T07:13:03.120Z,2880
2016-05-27T07:14:03.123Z,2976
2016-05-27T07:15:03.109Z,3076
2016-05-27T07:16:02.940Z,3200
2016-05-27T07:17:03.068Z,3356
2016-05-27T07:18:02.930Z,3552
2016-05-27T07:19:04.043Z,3772
2016-05-27T07:20:02.936Z,3948
2016-05-27T07:21:03.017Z,4056
2016-05-27T07:22:03.019Z,4112
2016-05-27T07:23:03.023Z,4140
2016-05-27T07:24:02.994Z,4196
2016-05-27T07:25:02.996Z,4292
2016-05-27T07:26:02.983Z,4412
2016-05-27T07:27:03.142Z,4520
2016-05-27T07:28:02.942Z,4624
2016-05-27T07:29:02.929Z,4740
2016-05-27T07:30:02.760Z,4852
2016-05-27T07:31:02.903Z,4988
2016-05-27T07:32:03.094Z,5180
2016-05-27T07:33:02.877Z,5388
2016-05-27T07:34:02.895Z,5620
2016-05-27T07:35:03.242Z,5816
2016-05-27T07:36:02.885Z,5968
2016-05-27T07:37:02.841Z,6076
2016-05-27T07:38:02.813Z,6168
2016-05-27T07:39:02.815Z,6272
2016-05-27T07:40:02.786Z,6392
2016-05-27T07:41:02.774Z,6524
2016-05-27T07:42:02.760Z,6620
2016-05-27T07:43:02.763Z,6696
2016-05-27T07:44:02.750Z,6768
2016-05-27T07:45:02.723Z,6840
2016-05-27T07:46:02.567Z,6840
2016-05-27T07:47:02.696Z,6772
2016-05-27T07:48:02.699Z,6684
2016-05-27T07:49:02.420Z,6560
2016-05-27T07:50:02.953Z,6412
2016-05-27T07:51:02.660Z,6336
2016-05-27T07:52:02.678Z,6352
2016-05-27T07:53:02.664Z,6444
2016-05-27T07:54:02.636Z,6632
2016-05-27T07:55:02.452Z,6852
2016-05-27T07:56:02.594Z,7084
2016-05-27T07:57:02.472Z,7272
2016-05-27T07:58:02.616Z,7436
2016-05-27T07:59:02.572Z,7584
2016-05-27T08:00:02.558Z,7660
2016-05-27T08:01:02.391Z,7632
2016-05-27T08:02:02.549Z,7484
2016-05-27T08:03:02.379Z,7264
2016-05-27T08:04:03.319Z,7044
2016-05-27T08:05:02.526Z,6888
2016-05-27T08:06:02.529Z,6796
2016-05-27T08:07:02.484Z,6764
2016-05-27T08:08:02.487Z,6728
2016-05-27T08:09:02.457Z,6744
2016-05-27T08:10:02.446Z,6760
2016-05-27T08:11:02.432Z,6760
2016-05-27T08:12:02.279Z,6848
2016-05-27T08:13:02.422Z,7008
2016-05-27T08:14:02.410Z,7264
2016-05-27T08:15:02.396Z,7660
2016-05-27T08:16:02.384Z,8208
2016-05-27T08:17:02.386Z,8832
2016-05-27T08:18:02.373Z,9468
2016-05-27T08:19:02.439Z,10072
2016-05-27T08:20:02.722Z,6736
2016-05-27T08:21:02.334Z,11284
2016-05-27T08:22:02.165Z,12104
2016-05-27T08:23:02.308Z,13360
2016-05-27T08:24:02.312Z,15660
2016-05-27T08:25:02.314Z,21440
2016-05-27T08:26:02.285Z,25024
2016-05-27T08:27:02.272Z,36800
2016-05-27T08:28:02.259Z,15476
2016-05-27T08:29:02.262Z,8920
2016-05-27T08:30:02.249Z,10696
2016-05-27T08:31:02.236Z,11128
2016-05-27T08:32:02.224Z,14396
2016-05-27T08:33:02.069Z,18912
2016-05-27T08:34:02.119Z,15808
2016-05-27T08:35:02.669Z,11920
2016-05-27T08:36:02.203Z,10728
2016-05-27T08:37:02.190Z,9884
2016-05-27T08:38:02.177Z,9248
2016-05-27T08:39:02.163Z,8892
2016-05-27T08:40:02.151Z,8572
2016-05-27T08:41:02.138Z,8268
2016-05-27T08:42:01.985Z,7896
2016-05-27T08:43:02.143Z,7508
2016-05-27T08:44:02.131Z,7192
2016-05-27T08:45:01.962Z,7016
2016-05-27T08:46:02.104Z,6980
2016-05-27T08:47:02.107Z,7120
2016-05-27T08:48:01.938Z,7404
2016-05-27T08:49:02.112Z,7776
2016-05-27T08:50:02.600Z,8068
2016-05-27T08:51:02.290Z,8224
2016-05-27T08:52:01.903Z,8244
2016-05-27T08:53:02.062Z,8140
2016-05-27T08:54:02.033Z,7944
2016-05-27T08:55:01.879Z,7604
2016-05-27T08:56:02.022Z,7224
2016-05-27T08:57:01.853Z,6768
2016-05-27T08:58:01.997Z,6404
2016-05-27T08:59:01.983Z,6124
2016-05-27T09:00:02.002Z,5984
2016-05-27T09:01:02.426Z,5984
2016-05-27T09:02:01.961Z,6208
2016-05-27T09:03:01.682Z,6596
2016-05-27T09:04:03.153Z,6952
2016-05-27T09:05:02.594Z,7228
2016-05-27T09:06:01.940Z,7488
2016-05-27T09:07:01.911Z,7676
2016-05-27T09:08:01.914Z,7776
2016-05-27T09:09:01.901Z,7788
2016-05-27T09:10:01.747Z,7580
2016-05-27T09:11:01.891Z,7244
2016-05-27T09:12:01.877Z,6976
2016-05-27T09:13:01.709Z,6812
2016-05-27T09:14:01.711Z,6808
2016-05-27T09:15:01.840Z,6836
2016-05-27T09:16:01.842Z,6760
2016-05-27T09:17:01.828Z,6516
2016-05-27T09:18:01.675Z,6268
2016-05-27T09:19:02.413Z,6072
2016-05-27T09:20:02.446Z,5860
2016-05-27T09:21:01.792Z,5684
2016-05-27T09:22:01.795Z,5648
2016-05-27T09:23:01.813Z,5692
2016-05-27T09:24:01.770Z,5832
2016-05-27T09:25:01.757Z,5988
2016-05-27T09:26:01.744Z,6148
2016-05-27T09:27:01.747Z,6300
2016-05-27T09:28:01.749Z,6468
2016-05-27T09:29:01.580Z,6648
2016-05-27T09:30:01.551Z,6836
2016-05-27T09:31:01.725Z,6960
2016-05-27T09:32:01.713Z,7004
2016-05-27T09:33:01.716Z,6968
2016-05-27T09:34:02.015Z,6888
2016-05-27T09:35:01.939Z,6820
2016-05-27T09:36:01.958Z,6808
2016-05-27T09:37:01.508Z,6860
2016-05-27T09:38:01.666Z,6952
2016-05-27T09:39:01.482Z,7056
2016-05-27T09:40:01.469Z,7176
2016-05-27T09:41:02.440Z,7300
2016-05-27T09:42:01.458Z,7452
2016-05-27T09:43:01.618Z,7656
2016-05-27T09:44:01.604Z,7896
2016-05-27T09:45:01.420Z,8116
2016-05-27T09:46:01.579Z,8244
2016-05-27T09:47:01.409Z,8176
2016-05-27T09:48:01.396Z,7964
2016-05-27T09:49:01.415Z,7708
2016-05-27T09:50:01.948Z,7488
2016-05-27T09:51:01.561Z,7392
2016-05-27T09:52:01.517Z,7372
2016-05-27T09:53:01.519Z,7384
2016-05-27T09:54:01.522Z,7396
2016-05-27T09:55:01.509Z,7420
2016-05-27T09:56:01.528Z,7508
2016-05-27T09:57:01.327Z,7580
2016-05-27T09:58:01.470Z,7644
2016-05-27T09:59:01.300Z,7768
2016-05-27T10:00:01.445Z,7936
2016-05-27T10:01:01.322Z,8132
2016-05-27T10:02:01.434Z,8292
2016-05-27T10:03:01.421Z,8448
2016-05-27T10:04:01.439Z,8604
2016-05-27T10:05:02.129Z,8752
2016-05-27T10:06:01.414Z,8864
2016-05-27T10:07:01.401Z,8964
2016-05-27T10:08:01.388Z,9108
2016-05-27T10:09:01.218Z,9288
2016-05-27T10:10:01.362Z,9492
2016-05-27T10:11:01.348Z,9788
2016-05-27T10:12:01.382Z,10084
2016-05-27T10:13:01.199Z,10380
2016-05-27T10:14:01.341Z,10708
2016-05-27T10:15:01.188Z,11048
2016-05-27T10:16:01.346Z,11388
2016-05-27T10:17:01.318Z,11728
2016-05-27T10:18:01.290Z,12116
2016-05-27T10:19:01.496Z,12528
2016-05-27T10:20:00.982Z,12904
2016-05-27T10:21:01.267Z,13232
2016-05-27T10:22:01.269Z,13472
2016-05-27T10:23:01.287Z,13732
2016-05-27T10:24:01.087Z,14080
2016-05-27T10:25:00.809Z,14460
2016-05-27T10:26:01.264Z,14756
2016-05-27T10:27:01.220Z,14940
2016-05-27T10:28:01.207Z,15012
2016-05-27T10:29:01.225Z,15020
2016-05-27T10:30:01.041Z,15036
2016-05-27T10:31:01.200Z,15096
2016-05-27T10:32:01.030Z,15156
2016-05-27T10:33:01.205Z,15160
2016-05-27T10:34:01.052Z,15096
2016-05-27T10:35:01.554Z,15064
2016-05-27T10:36:01.166Z,15132
2016-05-27T10:37:00.997Z,15256
2016-05-27T10:38:01.140Z,15352
2016-05-27T10:39:01.144Z,15292
2016-05-27T10:40:01.130Z,15096
2016-05-27T10:41:00.960Z,14960
2016-05-27T10:42:00.964Z,15020
2016-05-27T10:43:05.560Z,15072
2016-05-27T10:44:01.094Z,15236
2016-05-27T10:45:00.941Z,15344
2016-05-27T10:46:01.099Z,15396
2016-05-27T10:47:01.071Z,15416
2016-05-27T10:48:07.214Z,15536
2016-05-27T10:49:01.076Z,15744
2016-05-27T10:50:01.078Z,16000
2016-05-27T10:51:01.065Z,16384
2016-05-27T10:52:00.882Z,16768
2016-05-27T10:53:01.165Z,17312
2016-05-27T10:54:01.026Z,17920
2016-05-27T10:55:01.045Z,18336
2016-05-27T10:56:01.017Z,19008
2016-05-27T10:57:01.060Z,19872
2016-05-27T10:58:01.058Z,19648
2016-05-27T10:59:01.102Z,20096
2016-05-27T11:00:01.099Z,20672
2016-05-27T11:01:01.128Z,22112
2016-05-27T11:02:00.968Z,27008
2016-05-27T11:03:01.136Z,26560
2016-05-27T11:04:01.320Z,29920
2016-05-27T11:05:01.784Z,46464
2016-05-27T11:06:01.500Z,27872
2016-05-27T11:07:01.147Z,31008
2016-05-27T11:08:01.121Z,33952
2016-05-27T11:09:01.143Z,43808
2016-05-27T11:10:01.133Z,57760
2016-05-27T11:11:00.828Z,32512
2016-05-27T11:12:00.815Z,30688
2016-05-27T11:13:01.132Z,30080
2016-05-27T11:14:01.119Z,29536
2016-05-27T11:15:01.124Z,28032
2016-05-27T11:16:01.238Z,64768
2016-05-27T11:17:01.147Z,28832
2016-05-27T11:18:01.103Z,30272
2016-05-27T11:19:00.621Z,43200
2016-05-27T11:20:01.843Z,48512
2016-05-27T11:21:04.690Z,48128
2016-05-27T11:22:01.099Z,84096
2016-05-27T11:23:00.946Z,82496
2016-05-27T11:24:00.918Z,45952
2016-05-27T11:25:00.905Z,54432
2016-05-27T11:26:05.487Z,62336
2016-05-27T11:27:00.911Z,40032
2016-05-27T11:28:00.899Z,53920
2016-05-27T11:29:01.057Z,37344
2016-05-27T11:30:01.060Z,64416
2016-05-27T11:31:07.093Z,48672
2016-05-27T11:32:00.909Z,63232
2016-05-27T11:33:01.349Z,79520
2016-05-27T11:34:01.054Z,87008
2016-05-27T11:35:01.652Z,73696
2016-05-27T11:36:03.123Z,59648
2016-05-27T11:37:01.062Z,58144
2016-05-27T11:38:00.957Z,60192
2016-05-27T11:39:00.896Z,76416
2016-05-27T11:40:01.056Z,76800
2016-05-27T11:41:02.996Z,82944
2016-05-27T11:42:00.920Z,90464
2016-05-27T11:43:01.064Z,91488
2016-05-27T11:44:01.051Z,96288
2016-05-27T11:45:01.069Z,81760
2016-05-27T11:46:05.275Z,81632
2016-05-27T11:47:01.059Z,80896
2016-05-27T11:48:00.905Z,84928
2016-05-27T11:49:01.080Z,88032
2016-05-27T11:50:00.926Z,86336
2016-05-27T11:51:01.069Z,82624
2016-05-27T11:52:01.073Z,80864
2016-05-27T11:53:01.075Z,74880
2016-05-27T11:54:00.921Z,80448
2016-05-27T11:55:01.080Z,64800
2016-05-27T11:56:06.255Z,92864
2016-05-27T11:57:01.101Z,72832
2016-05-27T11:58:01.104Z,66048
2016-05-27T11:59:01.091Z,46336
2016-05-27T12:00:01.109Z,37920
2016-05-27T12:01:04.675Z,42912
2016-05-27T12:02:01.115Z,40896
2016-05-27T12:03:01.102Z,62816
2016-05-27T12:04:01.104Z,61536
2016-05-27T12:05:01.779Z,49024
2016-05-27T12:06:05.032Z,35712
2016-05-27T12:07:01.144Z,39040
2016-05-27T12:08:01.162Z,35296
2016-05-27T12:09:01.149Z,37088
2016-05-27T12:10:01.136Z,41792
2016-05-27T12:11:04.811Z,44352
2016-05-27T12:12:01.204Z,57888
2016-05-27T12:13:01.145Z,78560
2016-05-27T12:14:01.147Z,86048
2016-05-27T12:15:01.150Z,77536
2016-05-27T12:16:01.153Z,91904
2016-05-27T12:17:01.155Z,98496
2016-05-27T12:18:01.142Z,98368
2016-05-27T12:19:01.191Z,90784
2016-05-27T12:20:01.367Z,73184
2016-05-27T12:21:01.166Z,87712
2016-05-27T12:22:01.011Z,89888
2016-05-27T12:23:00.875Z,91200
2016-05-27T12:24:01.158Z,95552
2016-05-27T12:25:01.255Z,85728
2016-05-27T12:26:00.726Z,74688
2016-05-27T12:27:01.182Z,79872
2016-05-27T12:28:01.200Z,81472
2016-05-27T12:29:01.202Z,81280
2016-05-27T12:30:01.205Z,84704
2016-05-27T12:31:01.036Z,86720
2016-05-27T12:32:01.054Z,87392
2016-05-27T12:33:01.244Z,85568
2016-05-27T12:34:01.076Z,83360
2016-05-27T12:35:01.454Z,86496
2016-05-27T12:36:01.238Z,91136
2016-05-27T12:37:01.255Z,91392
2016-05-27T12:38:01.227Z,91584
2016-05-27T12:39:01.261Z,82816
2016-05-27T12:40:01.248Z,84960
2016-05-27T12:41:01.251Z,54048
2016-05-27T12:42:01.269Z,44480
2016-05-27T12:43:01.271Z,41216
2016-05-27T12:44:02.056Z,56032
2016-05-27T12:45:01.261Z,42592
2016-05-27T12:46:01.123Z,47008
2016-05-27T12:47:01.142Z,38176
2016-05-27T12:48:01.145Z,35168
2016-05-27T12:49:01.960Z,42528
2016-05-27T12:50:01.931Z,62144
2016-05-27T12:51:01.356Z,66464
2016-05-27T12:52:01.328Z,64256
2016-05-27T12:53:01.314Z,88160
2016-05-27T12:54:01.520Z,77184
2016-05-27T12:55:01.194Z,80192
2016-05-27T12:56:01.338Z,60064
2016-05-27T12:57:01.325Z,46816
2016-05-27T12:58:01.328Z,63328
2016-05-27T12:59:01.205Z,52064
2016-05-27T13:00:01.349Z,35392
2016-05-27T13:01:01.180Z,26400
2016-05-27T13:02:01.027Z,25472
2016-05-27T13:03:01.372Z,27744
2016-05-27T13:04:01.562Z,30816
2016-05-27T13:05:01.722Z,29792
2016-05-27T13:06:01.208Z,30688
2016-05-27T13:07:01.383Z,28736
2016-05-27T13:08:01.199Z,27808
2016-05-27T13:09:01.373Z,27456
2016-05-27T13:10:01.079Z,27776
2016-05-27T13:11:01.207Z,26528
2016-05-27T13:12:01.397Z,18432
2016-05-27T13:13:01.384Z,15424
2016-05-27T13:14:01.074Z,14424
2016-05-27T13:15:01.218Z,13716
2016-05-27T13:16:01.220Z,11896
2016-05-27T13:17:01.410Z,10584
2016-05-27T13:18:01.397Z,9780
2016-05-27T13:19:01.384Z,9376
2016-05-27T13:20:01.512Z,9332
2016-05-27T13:21:01.390Z,9760
2016-05-27T13:22:01.236Z,10440
2016-05-27T13:23:01.254Z,11260
2016-05-27T13:24:01.397Z,11808
2016-05-27T13:25:01.447Z,12052
2016-05-27T13:26:01.403Z,12296
2016-05-27T13:27:01.406Z,12544
2016-05-27T13:28:01.408Z,13428
2016-05-27T13:29:01.411Z,14188
2016-05-27T13:30:01.398Z,15472
2016-05-27T13:31:01.416Z,17376
2016-05-27T13:32:01.232Z,15636
2016-05-27T13:33:01.438Z,14940
2016-05-27T13:34:01.222Z,15540
2016-05-27T13:35:02.022Z,16224
2016-05-27T13:36:01.227Z,14612